Philip Billard Municipal Airport
KTOP : now visible

Airfield :











YOU CAN JOIN US ON...

 
LOGIN :

Register | Disclaimer

   EN    FR    IT 

 









Legend :    VFR   Marginal VFR   IFR   Intensive IFR   Very Intensive IFR
Visi :
Ceiling :
>= 8 km
>= 3000ft
5 to 8 km
1000 to 3000 ft
1500m to 5 km
500 to 1000 ft
800 to 1500m
200 to 500 ft
< 800m
< 200 ft
Symbols :   Thunderstorms  Fog  Heavy snow  Heavy precipitations  Wind > 20 kt






- Airport Elevation : 881 ft


KTOP - Philip Billard Municipal

CURRENT METAR :
  • 170253Z AUTO 07003KT 10SM CLR 03/01 A2992 RMK AO2 SLP138 T00330011 58003

EXPIRED METARs :
  • 170153Z 11004KT 10SM CLR 04/02 A2993 RMK AO2 SLP141 T00440017
  • 170053Z 00000KT 10SM CLR 07/02 A2993 RMK AO2 SLP142 T00720022

TAF KTOP
Valid from the 17 at 00:00 until the 18 at 00:00 UTC


162342Z 1700/1724 15005KT P6SM SCT200
FM170600 17002KT 6SM BR BKN035
FM170800 18002KT 5SM BR OVC017
FM171100 12003KT 3SM BR OVC006
FM171500 14004KT P6SM BKN015
FM171800 27007KT P6SM SCT050



MET'MAP, your aeronautical weather chart ! - Copyright ORBIFLY December 2007 - Disclaimer

ORBIFLY MET'MAP TEAM :

Programming & Development : Alexandra Zaïnal
Concept & original design : Baudouin d'Aumeries
Assistance for programming : Marc-Olivier Méhu
Technical & hardware support : Manuel Goepfert

Contact : metmap@orbifly.com




SOURCES & CREDITS :

   NOAA       Earth
Advisory